Terminal Aerodrome Forecast
Issued by NWS

Home | Current Version | Previous Version | Text Only | Print | Product List | Glossary On
Versions: 1 2 3 4 5 6 7 8 9 10 11 12 13
000
FTUS46 KMTR 071734
TAFOAK
TAF
KOAK 071734Z 0718/0824 28008KT P6SM OVC020
      TEMPO 0718/0719 SCT020
     FM071900 28010KT P6SM SCT020
     FM072000 28015KT P6SM FEW012 FEW016
     FM080300 28010KT P6SM SCT015
     FM080500 28007KT P6SM OVC010
     FM081800 26008KT P6SM SCT015
     FM082000 28013KT P6SM SCT020=

USA.gov is the U.S. government's official web portal to all federal, state and local government web resources and services.